sensor_id;sensor_type;location;lat;lon;timestamp;pressure;altitude;pressure_sealevel;temperature;humidity
20860;BME280;10590;48.154;11.514;2023-05-11T00:04:09;95508.50;;;8.75;91.71
20860;BME280;10590;48.154;11.514;2023-05-11T00:09:31;95504.88;;;8.71;92.16
20860;BME280;10590;48.154;11.514;2023-05-11T00:14:56;95507.06;;;8.69;93.00
20860;BME280;10590;48.154;11.514;2023-05-11T00:20:18;95501.34;;;8.62;92.95
20860;BME280;10590;48.154;11.514;2023-05-11T00:25:40;95499.66;;;8.66;93.08
20860;BME280;10590;48.154;11.514;2023-05-11T00:31:04;95495.88;;;8.58;93.02
20860;BME280;10590;48.154;11.514;2023-05-11T00:36:26;95486.00;;;8.59;92.94
20860;BME280;10590;48.154;11.514;2023-05-11T00:41:48;95490.91;;;8.66;93.24
20860;BME280;10590;48.154;11.514;2023-05-11T00:47:11;95489.22;;;8.70;93.11
20860;BME280;10590;48.154;11.514;2023-05-11T00:52:33;95486.66;;;8.65;92.85
20860;BME280;10590;48.154;11.514;2023-05-11T00:57:56;95489.41;;;8.73;93.02
20860;BME280;10590;48.154;11.514;2023-05-11T01:03:19;95484.22;;;8.68;92.11
20860;BME280;10590;48.154;11.514;2023-05-11T01:08:45;95479.16;;;8.67;92.07
20860;BME280;10590;48.154;11.514;2023-05-11T01:14:12;95479.16;;;8.67;92.62
20860;BME280;10590;48.154;11.514;2023-05-11T01:19:42;95473.19;;;8.61;92.18
20860;BME280;10590;48.154;11.514;2023-05-11T01:25:11;95474.59;;;8.58;93.25
20860;BME280;10590;48.154;11.514;2023-05-11T01:30:44;95466.31;;;8.60;92.51
20860;BME280;10590;48.154;11.514;2023-05-11T01:36:10;95468.13;;;8.51;93.19
20860;BME280;10590;48.154;11.514;2023-05-11T01:41:34;95475.50;;;8.54;93.01
20860;BME280;10590;48.154;11.514;2023-05-11T01:47:01;95466.25;;;8.51;93.12
20860;BME280;10590;48.154;11.514;2023-05-11T01:52:24;95472.31;;;8.43;92.66
20860;BME280;10590;48.154;11.514;2023-05-11T01:57:50;95463.88;;;8.41;92.83
20860;BME280;10590;48.154;11.514;2023-05-11T02:03:15;95470.66;;;8.56;93.04
20860;BME280;10590;48.154;11.514;2023-05-11T02:08:38;95470.50;;;8.52;93.18
20860;BME280;10590;48.154;11.514;2023-05-11T02:14:02;95472.84;;;8.54;92.62
20860;BME280;10590;48.154;11.514;2023-05-11T02:19:26;95466.44;;;8.55;92.40
20860;BME280;10590;48.154;11.514;2023-05-11T02:24:49;95460.91;;;8.43;92.65
20860;BME280;10590;48.154;11.514;2023-05-11T02:30:11;95466.09;;;8.48;92.66
20860;BME280;10590;48.154;11.514;2023-05-11T02:35:40;95463.56;;;8.43;92.22
20860;BME280;10590;48.154;11.514;2023-05-11T02:41:06;95464.78;;;8.37;92.67
20860;BME280;10590;48.154;11.514;2023-05-11T02:46:34;95458.38;;;8.38;93.04
20860;BME280;10590;48.154;11.514;2023-05-11T02:51:59;95458.25;;;8.43;93.25
20860;BME280;10590;48.154;11.514;2023-05-11T02:57:22;95448.03;;;8.36;92.65
20860;BME280;10590;48.154;11.514;2023-05-11T03:02:44;95455.34;;;8.30;92.32
20860;BME280;10590;48.154;11.514;2023-05-11T03:08:08;95451.50;;;8.37;93.13
20860;BME280;10590;48.154;11.514;2023-05-11T03:13:30;95455.81;;;8.32;92.61
20860;BME280;10590;48.154;11.514;2023-05-11T03:18:53;95454.25;;;8.31;93.08
20860;BME280;10590;48.154;11.514;2023-05-11T03:24:17;95450.16;;;8.25;92.71
20860;BME280;10590;48.154;11.514;2023-05-11T03:29:40;95448.81;;;8.14;93.00
20860;BME280;10590;48.154;11.514;2023-05-11T03:35:06;95445.22;;;8.10;93.27
20860;BME280;10590;48.154;11.514;2023-05-11T03:40:30;95444.41;;;8.10;93.54
20860;BME280;10590;48.154;11.514;2023-05-11T03:45:55;95431.91;;;8.10;93.39
20860;BME280;10590;48.154;11.514;2023-05-11T03:51:18;95433.25;;;7.99;92.96
20860;BME280;10590;48.154;11.514;2023-05-11T03:56:41;95431.91;;;8.10;93.37
20860;BME280;10590;48.154;11.514;2023-05-11T04:02:03;95431.00;;;8.15;93.51
20860;BME280;10590;48.154;11.514;2023-05-11T04:07:25;95427.56;;;8.14;93.40
20860;BME280;10590;48.154;11.514;2023-05-11T04:12:48;95426.00;;;8.13;93.11
20860;BME280;10590;48.154;11.514;2023-05-11T04:18:10;95429.56;;;8.09;94.02
20860;BME280;10590;48.154;11.514;2023-05-11T04:23:32;95425.38;;;8.16;93.50
20860;BME280;10590;48.154;11.514;2023-05-11T04:28:55;95432.28;;;8.17;93.45
20860;BME280;10590;48.154;11.514;2023-05-11T04:34:17;95439.47;;;8.17;93.04
20860;BME280;10590;48.154;11.514;2023-05-11T04:39:39;95436.03;;;8.16;93.19
20860;BME280;10590;48.154;11.514;2023-05-11T04:45:03;95442.06;;;8.08;93.49
20860;BME280;10590;48.154;11.514;2023-05-11T04:50:25;95439.09;;;8.10;93.14
20860;BME280;10590;48.154;11.514;2023-05-11T04:55:47;95441.28;;;8.08;93.47
20860;BME280;10590;48.154;11.514;2023-05-11T05:01:10;95442.19;;;8.03;93.27
20860;BME280;10590;48.154;11.514;2023-05-11T05:06:32;95445.16;;;8.02;93.13
20860;BME280;10590;48.154;11.514;2023-05-11T05:11:54;95430.72;;;7.94;93.36
20860;BME280;10590;48.154;11.514;2023-05-11T05:17:17;95443.59;;;8.01;93.48
20860;BME280;10590;48.154;11.514;2023-05-11T05:22:39;95442.97;;;8.04;93.06
20860;BME280;10590;48.154;11.514;2023-05-11T05:28:01;95445.09;;;7.93;92.95
20860;BME280;10590;48.154;11.514;2023-05-11T05:33:24;95462.47;;;7.99;92.78
20860;BME280;10590;48.154;11.514;2023-05-11T05:38:46;95450.88;;;7.95;93.11
20860;BME280;10590;48.154;11.514;2023-05-11T05:44:08;95454.75;;;7.89;93.04
20860;BME280;10590;48.154;11.514;2023-05-11T05:49:31;95458.69;;;7.91;93.46
20860;BME280;10590;48.154;11.514;2023-05-11T05:54:53;95448.53;;;7.93;93.06
20860;BME280;10590;48.154;11.514;2023-05-11T06:00:16;95449.34;;;8.25;93.56
20860;BME280;10590;48.154;11.514;2023-05-11T06:05:39;95449.19;;;8.44;91.75
20860;BME280;10590;48.154;11.514;2023-05-11T06:11:01;95465.94;;;8.75;92.30
20860;BME280;10590;48.154;11.514;2023-05-11T06:16:23;95471.38;;;8.70;91.70
20860;BME280;10590;48.154;11.514;2023-05-11T06:21:47;95468.84;;;8.65;91.26
20860;BME280;10590;48.154;11.514;2023-05-11T06:27:10;95464.53;;;8.78;90.26
20860;BME280;10590;48.154;11.514;2023-05-11T06:32:32;95465.16;;;8.75;90.67
20860;BME280;10590;48.154;11.514;2023-05-11T06:37:55;95463.19;;;8.98;90.22
20860;BME280;10590;48.154;11.514;2023-05-11T06:43:17;95473.81;;;8.89;90.03
20860;BME280;10590;48.154;11.514;2023-05-11T06:48:39;95469.09;;;8.86;89.93
20860;BME280;10590;48.154;11.514;2023-05-11T06:54:03;95466.16;;;8.96;89.99
20860;BME280;10590;48.154;11.514;2023-05-11T06:59:25;95466.03;;;9.01;89.20
20860;BME280;10590;48.154;11.514;2023-05-11T07:04:47;95460.19;;;8.90;88.15
20860;BME280;10590;48.154;11.514;2023-05-11T07:10:11;95465.88;;;9.06;89.78
20860;BME280;10590;48.154;11.514;2023-05-11T07:15:33;95468.84;;;8.65;90.44
20860;BME280;10590;48.154;11.514;2023-05-11T07:20:55;95477.56;;;8.57;91.37
20860;BME280;10590;48.154;11.514;2023-05-11T07:26:18;95477.69;;;8.52;90.98
20860;BME280;10590;48.154;11.514;2023-05-11T07:31:41;95462.81;;;8.51;91.99
20860;BME280;10590;48.154;11.514;2023-05-11T07:37:03;95467.41;;;8.59;92.05
20860;BME280;10590;48.154;11.514;2023-05-11T07:42:26;95472.34;;;8.74;91.21
20860;BME280;10590;48.154;11.514;2023-05-11T07:47:48;95468.06;;;8.65;91.04
20860;BME280;10590;48.154;11.514;2023-05-11T07:53:10;95470.00;;;8.73;90.80
20860;BME280;10590;48.154;11.514;2023-05-11T07:58:33;95461.47;;;8.93;91.13
20860;BME280;10590;48.154;11.514;2023-05-11T08:03:55;95475.59;;;9.02;90.15
20860;BME280;10590;48.154;11.514;2023-05-11T08:09:17;95469.81;;;9.09;90.19
20860;BME280;10590;48.154;11.514;2023-05-11T08:14:41;95470.13;;;9.16;90.79
20860;BME280;10590;48.154;11.514;2023-05-11T08:20:04;95467.84;;;8.83;90.64
20860;BME280;10590;48.154;11.514;2023-05-11T08:25:26;95466.25;;;8.74;90.23
20860;BME280;10590;48.154;11.514;2023-05-11T08:30:54;95469.44;;;8.93;89.67
20860;BME280;10590;48.154;11.514;2023-05-11T08:36:16;95465.84;;;8.98;89.94
20860;BME280;10590;48.154;11.514;2023-05-11T08:41:38;95456.31;;;8.97;89.98
20860;BME280;10590;48.154;11.514;2023-05-11T08:47:01;95454.44;;;9.06;89.55
20860;BME280;10590;48.154;11.514;2023-05-11T08:52:25;95450.38;;;9.00;89.41
20860;BME280;10590;48.154;11.514;2023-05-11T08:57:48;95453.06;;;9.17;88.41
20860;BME280;10590;48.154;11.514;2023-05-11T09:03:13;95463.59;;;9.31;88.56
20860;BME280;10590;48.154;11.514;2023-05-11T09:08:37;95461.06;;;9.25;89.21
20860;BME280;10590;48.154;11.514;2023-05-11T09:13:59;95458.44;;;9.34;88.41
20860;BME280;10590;48.154;11.514;2023-05-11T09:19:22;95471.56;;;9.22;88.56
20860;BME280;10590;48.154;11.514;2023-05-11T09:24:44;95461.53;;;9.19;88.18
20860;BME280;10590;48.154;11.514;2023-05-11T09:30:10;95462.69;;;9.44;88.14
20860;BME280;10590;48.154;11.514;2023-05-11T09:35:34;95458.47;;;9.51;88.04
20860;BME280;10590;48.154;11.514;2023-05-11T09:40:56;95451.56;;;9.50;87.59
20860;BME280;10590;48.154;11.514;2023-05-11T09:46:20;95453.13;;;9.51;87.71
20860;BME280;10590;48.154;11.514;2023-05-11T09:51:44;95446.44;;;9.54;88.29
20860;BME280;10590;48.154;11.514;2023-05-11T09:57:09;95455.06;;;9.77;88.01
20860;BME280;10590;48.154;11.514;2023-05-11T10:02:42;95452.06;;;9.61;87.91
20860;BME280;10590;48.154;11.514;2023-05-11T10:08:06;95448.78;;;9.90;88.65
20860;BME280;10590;48.154;11.514;2023-05-11T10:13:28;95444.88;;;9.62;87.79
20860;BME280;10590;48.154;11.514;2023-05-11T10:18:51;95446.50;;;9.23;87.89
20860;BME280;10590;48.154;11.514;2023-05-11T10:24:16;95450.72;;;9.15;88.81
20860;BME280;10590;48.154;11.514;2023-05-11T10:29:38;95445.09;;;9.25;88.78
20860;BME280;10590;48.154;11.514;2023-05-11T10:35:00;95438.72;;;9.44;88.27
20860;BME280;10590;48.154;11.514;2023-05-11T10:40:25;95440.41;;;9.31;88.53
20860;BME280;10590;48.154;11.514;2023-05-11T10:45:51;95441.88;;;9.72;88.48
20860;BME280;10590;48.154;11.514;2023-05-11T10:57:23;95438.91;;;9.65;87.98
20860;BME280;10590;48.154;11.514;2023-05-11T11:02:49;95434.69;;;9.64;88.13
20860;BME280;10590;48.154;11.514;2023-05-11T11:08:12;95442.13;;;9.18;88.24
20860;BME280;10590;48.154;11.514;2023-05-11T11:13:55;95437.34;;;9.81;89.80
20860;BME280;10590;48.154;11.514;2023-05-11T11:19:36;95437.81;;;9.83;88.56
20860;BME280;10590;48.154;11.514;2023-05-11T11:25:00;95429.81;;;9.74;87.36
20860;BME280;10590;48.154;11.514;2023-05-11T11:30:26;95430.91;;;9.99;88.39
20860;BME280;10590;48.154;11.514;2023-05-11T11:35:50;95424.44;;;10.26;87.87
20860;BME280;10590;48.154;11.514;2023-05-11T11:41:26;95422.28;;;10.02;88.56
20860;BME280;10590;48.154;11.514;2023-05-11T11:47:09;95429.50;;;9.93;89.14
20860;BME280;10590;48.154;11.514;2023-05-11T11:52:32;95426.38;;;9.82;88.31
20860;BME280;10590;48.154;11.514;2023-05-11T11:57:55;95434.81;;;10.02;88.77
20860;BME280;10590;48.154;11.514;2023-05-11T12:03:22;95427.28;;;10.12;89.43
20860;BME280;10590;48.154;11.514;2023-05-11T12:08:45;95424.25;;;10.40;88.65
20860;BME280;10590;48.154;11.514;2023-05-11T12:14:08;95426.03;;;10.10;88.10
20860;BME280;10590;48.154;11.514;2023-05-11T12:19:32;95417.91;;;9.89;88.31
20860;BME280;10590;48.154;11.514;2023-05-11T12:24:55;95420.09;;;9.87;89.21
20860;BME280;10590;48.154;11.514;2023-05-11T12:30:19;95425.09;;;9.88;86.92
20860;BME280;10590;48.154;11.514;2023-05-11T12:35:43;95421.47;;;10.10;88.21
20860;BME280;10590;48.154;11.514;2023-05-11T12:41:06;95410.84;;;9.93;87.06
20860;BME280;10590;48.154;11.514;2023-05-11T12:46:29;95414.28;;;10.02;87.73
20860;BME280;10590;48.154;11.514;2023-05-11T12:52:01;95406.72;;;10.21;88.57
20860;BME280;10590;48.154;11.514;2023-05-11T12:57:28;95399.81;;;10.12;88.08
20860;BME280;10590;48.154;11.514;2023-05-11T13:02:53;95404.88;;;9.96;88.74
20860;BME280;10590;48.154;11.514;2023-05-11T13:08:18;95400.78;;;10.07;88.57
20860;BME280;10590;48.154;11.514;2023-05-11T13:13:40;95398.88;;;10.25;88.26
20860;BME280;10590;48.154;11.514;2023-05-11T13:19:04;95394.66;;;10.07;88.79
20860;BME280;10590;48.154;11.514;2023-05-11T13:24:28;95385.13;;;9.97;88.55
20860;BME280;10590;48.154;11.514;2023-05-11T13:29:50;95383.50;;;10.13;88.30
20860;BME280;10590;48.154;11.514;2023-05-11T13:35:12;95384.75;;;10.33;88.09
20860;BME280;10590;48.154;11.514;2023-05-11T13:40:35;95380.84;;;10.13;88.21
20860;BME280;10590;48.154;11.514;2023-05-11T13:45:57;95384.16;;;10.10;89.03
20860;BME280;10590;48.154;11.514;2023-05-11T13:51:19;95378.34;;;10.26;89.42
20860;BME280;10590;48.154;11.514;2023-05-11T13:56:43;95377.88;;;10.15;89.47
20860;BME280;10590;48.154;11.514;2023-05-11T14:02:05;95379.75;;;10.14;88.56
20860;BME280;10590;48.154;11.514;2023-05-11T14:07:27;95380.22;;;10.16;89.88
20860;BME280;10590;48.154;11.514;2023-05-11T14:12:50;95375.69;;;10.08;88.50
20860;BME280;10590;48.154;11.514;2023-05-11T14:18:12;95376.75;;;10.16;87.77
20860;BME280;10590;48.154;11.514;2023-05-11T14:23:34;95367.78;;;10.38;87.50
20860;BME280;10590;48.154;11.514;2023-05-11T14:28:57;95370.63;;;10.33;89.12
20860;BME280;10590;48.154;11.514;2023-05-11T14:34:19;95373.00;;;10.26;88.32
20860;BME280;10590;48.154;11.514;2023-05-11T14:39:41;95370.19;;;10.22;87.72
20860;BME280;10590;48.154;11.514;2023-05-11T14:45:06;95377.09;;;10.23;89.07
20860;BME280;10590;48.154;11.514;2023-05-11T14:50:29;95367.53;;;10.13;88.06
20860;BME280;10590;48.154;11.514;2023-05-11T14:55:51;95375.03;;;10.29;87.85
20860;BME280;10590;48.154;11.514;2023-05-11T15:01:15;95377.63;;;9.82;87.90
20860;BME280;10590;48.154;11.514;2023-05-11T15:06:37;95368.34;;;9.97;87.96
20860;BME280;10590;48.154;11.514;2023-05-11T15:11:59;95371.91;;;10.09;88.39
20860;BME280;10590;48.154;11.514;2023-05-11T15:17:25;95381.28;;;10.33;88.83
20860;BME280;10590;48.154;11.514;2023-05-11T15:22:47;95382.25;;;10.19;88.95
20860;BME280;10590;48.154;11.514;2023-05-11T15:28:09;95392.19;;;9.93;89.43
20860;BME280;10590;48.154;11.514;2023-05-11T15:33:33;95392.63;;;10.04;89.57
20860;BME280;10590;48.154;11.514;2023-05-11T15:38:54;95397.31;;;10.07;89.68
20860;BME280;10590;48.154;11.514;2023-05-11T15:44:16;95385.44;;;9.87;90.41
20860;BME280;10590;48.154;11.514;2023-05-11T15:49:40;95384.19;;;9.93;90.73
20860;BME280;10590;48.154;11.514;2023-05-11T15:55:02;95394.50;;;10.12;89.86
20860;BME280;10590;48.154;11.514;2023-05-11T16:00:25;95391.50;;;10.13;89.68
20860;BME280;10590;48.154;11.514;2023-05-11T16:05:48;95389.66;;;9.97;89.50
20860;BME280;10590;48.154;11.514;2023-05-11T16:11:10;95394.19;;;10.13;90.18
20860;BME280;10590;48.154;11.514;2023-05-11T16:16:32;95392.66;;;9.95;89.08
20860;BME280;10590;48.154;11.514;2023-05-11T16:21:56;95384.81;;;9.90;89.80
20860;BME280;10590;48.154;11.514;2023-05-11T16:27:18;95385.72;;;10.11;89.32
20860;BME280;10590;48.154;11.514;2023-05-11T16:32:39;95392.47;;;10.09;90.04
20860;BME280;10590;48.154;11.514;2023-05-11T16:38:04;95398.75;;;10.04;89.70
20860;BME280;10590;48.154;11.514;2023-05-11T16:43:26;95391.84;;;10.03;89.49
20860;BME280;10590;48.154;11.514;2023-05-11T16:48:48;95377.28;;;10.01;89.38
20860;BME280;10590;48.154;11.514;2023-05-11T16:54:11;95367.19;;;10.15;89.65
20860;BME280;10590;48.154;11.514;2023-05-11T16:59:33;95375.84;;;10.20;89.49
20860;BME280;10590;48.154;11.514;2023-05-11T17:04:55;95378.53;;;10.03;89.76
20860;BME280;10590;48.154;11.514;2023-05-11T17:10:19;95371.78;;;10.06;90.03
20860;BME280;10590;48.154;11.514;2023-05-11T17:15:41;95378.53;;;10.03;88.31
20860;BME280;10590;48.154;11.514;2023-05-11T17:21:03;95374.00;;;9.86;88.33
20860;BME280;10590;48.154;11.514;2023-05-11T17:26:26;95376.03;;;9.98;89.10
20860;BME280;10590;48.154;11.514;2023-05-11T17:31:48;95369.91;;;9.98;89.61
20860;BME280;10590;48.154;11.514;2023-05-11T17:37:10;95371.19;;;9.92;90.07
20860;BME280;10590;48.154;11.514;2023-05-11T17:42:35;95370.09;;;9.84;90.52
20860;BME280;10590;48.154;11.514;2023-05-11T17:47:56;95362.25;;;9.79;91.25
20860;BME280;10590;48.154;11.514;2023-05-11T17:53:18;95367.91;;;9.86;91.04
20860;BME280;10590;48.154;11.514;2023-05-11T17:58:42;95361.16;;;9.80;91.42
20860;BME280;10590;48.154;11.514;2023-05-11T18:04:04;95367.91;;;9.86;90.50
20860;BME280;10590;48.154;11.514;2023-05-11T18:09:29;95370.25;;;9.79;91.73
20860;BME280;10590;48.154;11.514;2023-05-11T18:14:55;95376.03;;;9.89;91.09
20860;BME280;10590;48.154;11.514;2023-05-11T18:20:17;95381.69;;;9.88;90.45
20860;BME280;10590;48.154;11.514;2023-05-11T18:25:39;95374.19;;;9.73;91.34
20860;BME280;10590;48.154;11.514;2023-05-11T18:31:02;95387.03;;;9.71;90.93
20860;BME280;10590;48.154;11.514;2023-05-11T18:36:24;95388.28;;;9.65;91.65
20860;BME280;10590;48.154;11.514;2023-05-11T18:41:47;95385.28;;;9.40;91.79
20860;BME280;10590;48.154;11.514;2023-05-11T18:47:10;95383.28;;;9.54;91.68
20860;BME280;10590;48.154;11.514;2023-05-11T18:52:33;95385.00;;;9.59;91.46
20860;BME280;10590;48.154;11.514;2023-05-11T18:57:55;95386.41;;;9.65;91.87
20860;BME280;10590;48.154;11.514;2023-05-11T19:03:20;95387.97;;;9.57;91.92
20860;BME280;10590;48.154;11.514;2023-05-11T19:08:42;95393.94;;;9.54;92.61
20860;BME280;10590;48.154;11.514;2023-05-11T19:14:04;95402.88;;;9.58;92.45
20860;BME280;10590;48.154;11.514;2023-05-11T19:19:28;95400.19;;;9.58;92.38
20860;BME280;10590;48.154;11.514;2023-05-11T19:24:50;95399.25;;;9.54;92.64
20860;BME280;10590;48.154;11.514;2023-05-11T19:30:12;95398.16;;;9.73;92.11
20860;BME280;10590;48.154;11.514;2023-05-11T19:35:36;95399.25;;;9.54;92.47
20860;BME280;10590;48.154;11.514;2023-05-11T19:40:58;95406.31;;;9.59;92.38
20860;BME280;10590;48.154;11.514;2023-05-11T19:46:20;95406.63;;;9.75;92.68
20860;BME280;10590;48.154;11.514;2023-05-11T19:51:44;95403.03;;;9.71;92.13
20860;BME280;10590;48.154;11.514;2023-05-11T19:57:06;95401.44;;;9.70;91.52
20860;BME280;10590;48.154;11.514;2023-05-11T20:02:27;95409.75;;;9.77;91.65
20860;BME280;10590;48.154;11.514;2023-05-11T20:07:51;95409.41;;;10.04;90.71
20860;BME280;10590;48.154;11.514;2023-05-11T20:13:13;95394.84;;;9.93;91.09
20860;BME280;10590;48.154;11.514;2023-05-11T20:18:35;95401.06;;;10.14;90.00
20860;BME280;10590;48.154;11.514;2023-05-11T20:23:58;95396.22;;;10.25;89.71
20860;BME280;10590;48.154;11.514;2023-05-11T20:29:20;95391.50;;;10.13;89.96
20860;BME280;10590;48.154;11.514;2023-05-11T20:34:42;95398.72;;;10.30;89.06
20860;BME280;10590;48.154;11.514;2023-05-11T20:40:07;95395.59;;;10.28;88.96
20860;BME280;10590;48.154;11.514;2023-05-11T20:45:29;95386.22;;;9.87;89.72
20860;BME280;10590;48.154;11.514;2023-05-11T20:50:51;95397.00;;;10.08;89.88
20860;BME280;10590;48.154;11.514;2023-05-11T20:56:14;95386.19;;;10.22;89.31
20860;BME280;10590;48.154;11.514;2023-05-11T21:01:36;95385.53;;;10.16;88.78
20860;BME280;10590;48.154;11.514;2023-05-11T21:06:58;95388.53;;;10.24;89.16
20860;BME280;10590;48.154;11.514;2023-05-11T21:12:22;95362.88;;;9.93;89.68
20860;BME280;10590;48.154;11.514;2023-05-11T21:17:43;95382.59;;;10.09;89.62
20860;BME280;10590;48.154;11.514;2023-05-11T21:23:06;95375.25;;;9.98;89.60
20860;BME280;10590;48.154;11.514;2023-05-11T21:28:30;95374.94;;;9.90;90.12
20860;BME280;10590;48.154;11.514;2023-05-11T21:33:54;95379.78;;;9.97;90.11
20860;BME280;10590;48.154;11.514;2023-05-11T21:39:16;95371.69;;;9.68;91.16
20860;BME280;10590;48.154;11.514;2023-05-11T21:44:39;95389.03;;;10.00;90.24
20860;BME280;10590;48.154;11.514;2023-05-11T21:50:01;95380.28;;;9.90;89.54
20860;BME280;10590;48.154;11.514;2023-05-11T21:55:23;95391.25;;;9.72;90.46
20860;BME280;10590;48.154;11.514;2023-05-11T22:00:47;95383.75;;;9.65;91.63
20860;BME280;10590;48.154;11.514;2023-05-11T22:06:09;95390.78;;;9.70;91.73
20860;BME280;10590;48.154;11.514;2023-05-11T22:11:32;95385.16;;;9.63;92.08
20860;BME280;10590;48.154;11.514;2023-05-11T22:16:55;95396.44;;;9.60;91.94
20860;BME280;10590;48.154;11.514;2023-05-11T22:22:17;95383.56;;;9.79;91.38
20860;BME280;10590;48.154;11.514;2023-05-11T22:27:39;95398.16;;;9.90;90.33
20860;BME280;10590;48.154;11.514;2023-05-11T22:33:03;95390.94;;;9.82;90.07
20860;BME280;10590;48.154;11.514;2023-05-11T22:38:25;95385.28;;;9.83;90.14
20860;BME280;10590;48.154;11.514;2023-05-11T22:43:47;95395.63;;;9.94;89.59
20860;BME280;10590;48.154;11.514;2023-05-11T22:49:10;95397.22;;;9.86;90.29
20860;BME280;10590;48.154;11.514;2023-05-11T22:54:32;95397.97;;;9.95;89.78
20860;BME280;10590;48.154;11.514;2023-05-11T22:59:55;95396.13;;;9.70;90.85
20860;BME280;10590;48.154;11.514;2023-05-11T23:05:19;95395.00;;;9.53;91.34
20860;BME280;10590;48.154;11.514;2023-05-11T23:10:41;95398.59;;;9.49;91.54
20860;BME280;10590;48.154;11.514;2023-05-11T23:16:03;95391.56;;;9.53;91.97
20860;BME280;10590;48.154;11.514;2023-05-11T23:21:27;95392.66;;;9.52;91.81
20860;BME280;10590;48.154;11.514;2023-05-11T23:26:48;95379.81;;;9.45;91.96
20860;BME280;10590;48.154;11.514;2023-05-11T23:32:10;95381.06;;;9.48;92.05
20860;BME280;10590;48.154;11.514;2023-05-11T23:37:34;95386.38;;;9.39;92.39
20860;BME280;10590;48.154;11.514;2023-05-11T23:42:56;95386.53;;;9.51;92.58
20860;BME280;10590;48.154;11.514;2023-05-11T23:48:18;95384.66;;;9.43;92.02
20860;BME280;10590;48.154;11.514;2023-05-11T23:53:41;95376.34;;;9.36;92.78
20860;BME280;10590;48.154;11.514;2023-05-11T23:59:03;95377.00;;;9.50;92.26
